createdAt,value
2023-05-01T00:01:40.380Z,1.85
2023-05-01T00:04:07.410Z,1.40
2023-05-01T00:06:34.279Z,1.40
2023-05-01T00:09:00.990Z,1.60
2023-05-01T00:11:27.657Z,1.73
2023-05-01T00:13:54.398Z,1.25
2023-05-01T00:16:21.104Z,1.40
2023-05-01T00:18:47.931Z,1.98
2023-05-01T00:21:14.593Z,1.75
2023-05-01T00:23:41.276Z,1.65
2023-05-01T00:26:07.985Z,1.70
2023-05-01T00:28:34.629Z,1.55
2023-05-01T00:31:01.260Z,1.70
2023-05-01T00:33:27.904Z,1.33
2023-05-01T00:35:54.588Z,1.40
2023-05-01T00:38:21.199Z,1.40
2023-05-01T00:40:47.829Z,1.80
2023-05-01T00:43:14.615Z,1.45
2023-05-01T00:45:43.978Z,1.92
2023-05-01T00:48:10.791Z,1.65
2023-05-01T00:50:37.621Z,1.50
2023-05-01T00:53:04.273Z,1.80
2023-05-01T00:55:31.520Z,1.85
2023-05-01T00:57:58.134Z,1.92
2023-05-01T01:00:24.874Z,1.88
2023-05-01T01:02:51.555Z,2.40
2023-05-01T01:05:18.519Z,1.58
2023-05-01T01:07:53.802Z,1.42
2023-05-01T01:10:39.525Z,1.70
2023-05-01T01:13:09.249Z,2.15
2023-05-01T01:15:41.620Z,1.77
2023-05-01T01:18:14.858Z,1.73
2023-05-01T01:20:54.848Z,1.83
2023-05-01T01:23:53.406Z,1.95
2023-05-01T01:26:58.619Z,1.98
2023-05-01T01:29:31.131Z,2.03
2023-05-01T01:32:26.779Z,2.00
2023-05-01T01:34:59.612Z,2.00
2023-05-01T01:37:55.580Z,2.20
2023-05-01T01:40:28.820Z,2.10
2023-05-01T01:43:06.365Z,2.33
2023-05-01T01:45:49.966Z,1.95
2023-05-01T01:48:22.806Z,1.88
2023-05-01T01:50:49.580Z,2.63
2023-05-01T01:53:17.898Z,2.40
2023-05-01T01:55:45.216Z,2.00
2023-05-01T01:58:12.246Z,2.03
2023-05-01T02:00:39.836Z,2.00
2023-05-01T02:03:06.633Z,2.13
2023-05-01T02:05:33.503Z,1.92
2023-05-01T02:08:00.184Z,2.53
2023-05-01T02:10:26.859Z,2.20
2023-05-01T02:12:53.546Z,2.10
2023-05-01T02:15:20.164Z,2.42
2023-05-01T02:17:46.817Z,2.33
2023-05-01T02:20:13.530Z,2.40
2023-05-01T02:22:40.552Z,2.25
2023-05-01T02:25:10.843Z,2.20
2023-05-01T02:27:40.548Z,2.85
2023-05-01T02:30:08.270Z,2.05
2023-05-01T02:32:35.134Z,2.38
2023-05-01T02:35:01.871Z,2.03
2023-05-01T02:37:28.628Z,2.80
2023-05-01T02:39:55.554Z,2.08
2023-05-01T02:42:22.514Z,2.25
2023-05-01T02:44:54.909Z,2.45
2023-05-01T02:47:22.536Z,2.10
2023-05-01T02:49:49.460Z,2.40
2023-05-01T02:52:19.320Z,2.22
2023-05-01T02:54:46.048Z,2.33
2023-05-01T02:57:12.671Z,2.22
2023-05-01T02:59:39.328Z,2.20
2023-05-01T03:02:05.996Z,2.20
2023-05-01T03:04:32.765Z,2.25
2023-05-01T03:06:59.412Z,2.10
2023-05-01T03:09:26.106Z,2.25
2023-05-01T03:11:52.803Z,2.97
2023-05-01T03:14:19.498Z,2.30
2023-05-01T03:16:46.344Z,2.47
2023-05-01T03:19:13.048Z,2.63
2023-05-01T03:21:39.725Z,2.53
2023-05-01T03:24:06.754Z,2.85
2023-05-01T03:26:33.481Z,2.75
2023-05-01T03:29:00.182Z,2.50
2023-05-01T03:31:26.925Z,2.50
2023-05-01T03:33:53.608Z,2.47
2023-05-01T03:36:20.277Z,2.67
2023-05-01T03:38:46.946Z,3.10
2023-05-01T03:41:13.600Z,2.78
2023-05-01T03:43:40.374Z,2.55
2023-05-01T03:46:07.107Z,2.65
2023-05-01T03:48:33.874Z,2.90
2023-05-01T03:51:00.487Z,2.63
2023-05-01T03:53:27.172Z,3.05
2023-05-01T03:55:53.902Z,2.92
2023-05-01T03:58:20.550Z,2.72
2023-05-01T04:00:47.163Z,2.70
2023-05-01T04:03:13.843Z,2.80
2023-05-01T04:05:40.473Z,3.03
2023-05-01T04:08:07.074Z,2.50
2023-05-01T04:10:33.690Z,2.90
2023-05-01T04:13:00.289Z,3.22
2023-05-01T04:15:26.852Z,3.58
2023-05-01T04:17:53.508Z,2.95
2023-05-01T04:20:20.251Z,3.60
2023-05-01T04:22:46.850Z,3.60
2023-05-01T04:25:13.506Z,3.00
2023-05-01T04:27:40.239Z,3.53
2023-05-01T04:30:07.420Z,3.45
2023-05-01T04:32:34.020Z,3.92
2023-05-01T04:35:01.297Z,3.40
2023-05-01T04:37:27.916Z,2.83
2023-05-01T04:39:54.651Z,3.92
2023-05-01T04:42:21.428Z,3.15
2023-05-01T04:44:48.043Z,3.67
2023-05-01T04:47:14.677Z,3.13
2023-05-01T04:49:41.311Z,3.42
2023-05-01T04:52:07.914Z,3.65
2023-05-01T04:54:34.512Z,3.35
2023-05-01T04:57:03.865Z,3.40
2023-05-01T04:59:30.462Z,3.67
2023-05-01T05:01:57.209Z,3.72
2023-05-01T05:04:23.985Z,3.72
2023-05-01T05:06:50.653Z,3.92
2023-05-01T05:09:19.958Z,3.33
2023-05-01T05:11:46.868Z,3.80
2023-05-01T05:14:13.486Z,3.70
2023-05-01T05:16:40.173Z,3.55
2023-05-01T05:19:06.870Z,3.50
2023-05-01T05:21:33.930Z,3.88
2023-05-01T05:24:00.638Z,4.13
2023-05-01T05:26:27.254Z,4.15
2023-05-01T05:28:53.900Z,3.80
2023-05-01T05:31:20.621Z,4.03
2023-05-01T05:33:47.246Z,4.40
2023-05-01T05:36:13.899Z,4.03
2023-05-01T05:38:40.659Z,4.30
2023-05-01T05:41:07.315Z,4.25
2023-05-01T05:43:34.014Z,4.05
2023-05-01T05:46:00.698Z,4.32
2023-05-01T05:48:27.549Z,3.67
2023-05-01T05:50:54.257Z,4.05
2023-05-01T05:53:21.229Z,4.05
2023-05-01T05:55:48.712Z,4.57
2023-05-01T05:58:15.581Z,3.88
2023-05-01T06:00:42.217Z,4.07
2023-05-01T06:03:08.982Z,4.07
2023-05-01T06:05:35.674Z,4.32
2023-05-01T06:08:02.378Z,4.20
2023-05-01T06:10:28.983Z,4.35
2023-05-01T06:13:13.436Z,4.18
2023-05-01T06:15:41.066Z,4.47
2023-05-01T06:18:08.017Z,4.18
2023-05-01T06:20:34.827Z,4.28
2023-05-01T06:23:01.476Z,4.05
2023-05-01T06:25:28.154Z,3.63
2023-05-01T06:27:54.860Z,4.70
2023-05-01T06:30:21.537Z,3.80
2023-05-01T06:32:48.581Z,4.00
2023-05-01T06:35:15.375Z,3.97
2023-05-01T06:37:42.004Z,4.22
2023-05-01T06:40:10.115Z,4.55
2023-05-01T06:42:39.956Z,4.38
2023-05-01T06:45:07.777Z,4.40
2023-05-01T06:47:34.545Z,4.55
2023-05-01T06:50:02.871Z,4.00
2023-05-01T06:52:31.211Z,4.35
2023-05-01T06:54:57.870Z,4.65
2023-05-01T06:57:24.584Z,5.00
2023-05-01T06:59:51.187Z,4.60
2023-05-01T07:02:17.874Z,5.03
2023-05-01T07:04:44.504Z,4.53
2023-05-01T07:07:11.137Z,5.00
2023-05-01T07:09:37.868Z,4.38
2023-05-01T07:12:05.850Z,4.97
2023-05-01T07:14:33.056Z,4.28
2023-05-01T07:16:59.795Z,4.40
2023-05-01T07:19:26.488Z,4.38
2023-05-01T07:21:53.173Z,4.78
2023-05-01T07:24:19.793Z,4.00
2023-05-01T07:26:46.453Z,4.13
2023-05-01T07:29:13.084Z,3.80
2023-05-01T07:31:39.847Z,4.07
2023-05-01T07:34:06.490Z,4.30
2023-05-01T07:36:33.111Z,4.25
2023-05-01T07:38:59.857Z,4.25
2023-05-01T07:41:26.535Z,4.13
2023-05-01T07:43:53.229Z,4.45
2023-05-01T07:46:19.902Z,3.95
2023-05-01T07:48:46.645Z,4.65
2023-05-01T07:51:13.232Z,4.47
2023-05-01T07:53:39.874Z,4.53
2023-05-01T07:56:09.497Z,4.25
2023-05-01T07:58:36.627Z,4.35
2023-05-01T08:01:03.776Z,4.57
2023-05-01T08:03:30.997Z,4.80
2023-05-01T08:05:57.998Z,5.03
2023-05-01T08:08:24.795Z,5.13
2023-05-01T08:10:51.778Z,5.53
2023-05-01T08:13:18.592Z,5.35
2023-05-01T08:15:46.853Z,5.60
2023-05-01T08:18:13.658Z,5.82
2023-05-01T08:20:40.388Z,5.15
2023-05-01T08:23:07.060Z,5.38
2023-05-01T08:25:33.824Z,5.32
2023-05-01T08:28:00.571Z,5.32
2023-05-01T08:30:27.257Z,4.85
2023-05-01T08:32:53.989Z,5.45
2023-05-01T08:35:20.738Z,4.70
2023-05-01T08:37:47.358Z,4.93
2023-05-01T08:40:15.162Z,5.78
2023-05-01T08:42:41.814Z,5.53
2023-05-01T08:45:09.012Z,4.78
2023-05-01T08:47:39.908Z,5.03
2023-05-01T08:50:10.075Z,4.70
2023-05-01T08:52:36.692Z,4.72
2023-05-01T08:55:03.349Z,5.00
2023-05-01T08:57:30.093Z,5.43
2023-05-01T08:59:56.959Z,5.25
2023-05-01T09:02:23.954Z,5.20
2023-05-01T09:04:50.702Z,6.07
2023-05-01T09:07:17.307Z,5.85
2023-05-01T09:09:43.949Z,5.43
2023-05-01T09:12:22.098Z,5.70
2023-05-01T09:14:49.414Z,6.07
2023-05-01T09:17:16.016Z,5.70
2023-05-01T09:19:42.755Z,5.53
2023-05-01T09:22:09.673Z,5.55
2023-05-01T09:24:36.400Z,5.15
2023-05-01T09:27:03.093Z,6.32
2023-05-01T09:29:48.013Z,5.50
2023-05-01T09:32:25.822Z,5.35
2023-05-01T09:34:53.128Z,5.65
2023-05-01T09:37:32.623Z,5.30
2023-05-01T09:40:12.676Z,6.07
2023-05-01T09:42:41.411Z,6.25
2023-05-01T09:45:14.230Z,6.63
2023-05-01T09:47:42.066Z,6.97
2023-05-01T09:50:09.118Z,6.38
2023-05-01T09:52:35.757Z,6.43
2023-05-01T09:55:12.192Z,6.65
2023-05-01T09:57:38.908Z,7.22
2023-05-01T10:00:06.187Z,6.43
2023-05-01T10:02:33.004Z,7.00
2023-05-01T10:04:59.812Z,6.85
2023-05-01T10:07:26.542Z,6.75
2023-05-01T10:09:54.090Z,6.75
2023-05-01T10:12:27.689Z,7.05
2023-05-01T10:14:54.989Z,7.30
2023-05-01T10:17:21.824Z,6.93
2023-05-01T10:19:48.822Z,6.90
2023-05-01T10:22:15.526Z,7.28
2023-05-01T10:24:43.405Z,7.75
2023-05-01T10:27:10.039Z,7.00
2023-05-01T10:29:40.046Z,7.40
2023-05-01T10:32:07.005Z,6.75
2023-05-01T10:34:38.616Z,7.15
2023-05-01T10:37:11.127Z,7.32
2023-05-01T10:39:37.845Z,7.40
2023-05-01T10:42:08.657Z,8.05
2023-05-01T10:44:35.356Z,7.85
2023-05-01T10:47:25.014Z,8.23
2023-05-01T10:50:24.336Z,7.38
2023-05-01T10:53:09.909Z,7.70
2023-05-01T10:55:37.214Z,7.97
2023-05-01T10:58:03.890Z,8.73
2023-05-01T11:00:31.234Z,8.77
2023-05-01T11:03:19.483Z,8.18
2023-05-01T11:06:01.666Z,7.70
2023-05-01T11:08:32.262Z,8.70
2023-05-01T11:11:07.716Z,8.00
2023-05-01T11:14:04.084Z,8.43
2023-05-01T11:16:40.692Z,8.00
2023-05-01T11:19:09.342Z,8.30
2023-05-01T11:21:37.127Z,7.60
2023-05-01T11:24:04.441Z,7.45
2023-05-01T11:26:32.487Z,7.10
2023-05-01T11:29:00.318Z,6.90
2023-05-01T11:31:27.102Z,6.85
2023-05-01T11:33:56.372Z,6.78
2023-05-01T11:36:23.210Z,6.28
2023-05-01T11:38:53.501Z,7.43
2023-05-01T11:41:20.767Z,6.60
2023-05-01T11:43:54.724Z,6.75
2023-05-01T11:46:30.985Z,6.47
2023-05-01T11:48:58.877Z,5.88
2023-05-01T11:51:25.797Z,6.10
2023-05-01T11:54:02.129Z,5.43
2023-05-01T11:56:29.320Z,5.15
2023-05-01T11:58:58.749Z,5.05
2023-05-01T12:01:35.475Z,5.35
2023-05-01T12:04:05.517Z,5.40
2023-05-01T12:06:52.687Z,5.30
2023-05-01T12:09:23.440Z,5.50
2023-05-01T12:11:52.548Z,5.20
2023-05-01T12:14:20.205Z,5.00
2023-05-01T12:16:46.945Z,5.50
2023-05-01T12:19:14.497Z,5.45
2023-05-01T12:21:41.226Z,5.22
2023-05-01T12:24:11.549Z,5.53
2023-05-01T12:26:38.333Z,5.53
2023-05-01T12:29:05.865Z,5.97
2023-05-01T12:31:32.926Z,5.65
2023-05-01T12:34:04.104Z,6.20
2023-05-01T12:36:32.000Z,5.60
2023-05-01T12:39:06.256Z,5.35
2023-05-01T12:41:40.946Z,5.57
2023-05-01T12:44:20.364Z,5.82
2023-05-01T12:46:56.444Z,5.50
2023-05-01T12:49:23.598Z,5.35
2023-05-01T12:51:54.764Z,5.63
2023-05-01T12:54:39.993Z,6.00
2023-05-01T12:57:08.648Z,6.45
2023-05-01T12:59:39.500Z,6.35
2023-05-01T13:02:07.636Z,6.85
2023-05-01T13:04:34.814Z,6.82
2023-05-01T13:07:01.750Z,6.20
2023-05-01T13:09:29.025Z,6.13
2023-05-01T13:12:03.253Z,6.25
2023-05-01T13:14:30.182Z,7.22
2023-05-01T13:16:56.871Z,6.97
2023-05-01T13:19:29.388Z,6.53
2023-05-01T13:21:56.493Z,6.82
2023-05-01T13:24:23.767Z,7.80
2023-05-01T13:26:57.502Z,7.10
2023-05-01T13:29:24.251Z,7.05
2023-05-01T13:31:50.907Z,6.55
2023-05-01T13:34:19.089Z,6.47
2023-05-01T13:36:45.687Z,5.97
2023-05-01T13:39:12.462Z,6.32
2023-05-01T13:41:39.282Z,6.75
2023-05-01T13:44:05.898Z,6.22
2023-05-01T13:46:32.668Z,5.85
2023-05-01T13:49:00.639Z,6.68
2023-05-01T13:51:27.362Z,6.78
2023-05-01T13:53:54.339Z,6.38
2023-05-01T13:56:21.053Z,6.97
2023-05-01T13:58:47.724Z,7.20
2023-05-01T14:01:15.768Z,8.05
2023-05-01T14:03:42.815Z,7.30
2023-05-01T14:06:19.937Z,7.25
2023-05-01T14:08:47.485Z,7.50
2023-05-01T14:11:14.459Z,8.15
2023-05-01T14:13:44.732Z,7.47
2023-05-01T14:16:16.987Z,8.50
2023-05-01T14:18:44.618Z,7.60
2023-05-01T14:21:12.428Z,7.10
2023-05-01T14:23:39.667Z,7.70
2023-05-01T14:26:06.315Z,7.13
2023-05-01T14:28:32.973Z,6.53
2023-05-01T14:30:59.711Z,6.57
2023-05-01T14:33:26.390Z,6.20
2023-05-01T14:35:53.460Z,6.22
2023-05-01T14:38:20.864Z,6.40
2023-05-01T14:40:47.587Z,6.07
2023-05-01T14:43:16.549Z,6.15
2023-05-01T14:45:43.680Z,6.75
2023-05-01T14:48:23.841Z,6.93
2023-05-01T14:50:50.969Z,7.03
2023-05-01T14:53:17.675Z,8.65
2023-05-01T14:55:44.379Z,7.47
2023-05-01T14:58:11.028Z,8.13
2023-05-01T15:00:37.680Z,8.98
2023-05-01T15:03:04.409Z,8.50
2023-05-01T15:05:31.093Z,9.40
2023-05-01T15:07:57.772Z,8.70
2023-05-01T15:10:24.436Z,9.55
2023-05-01T15:12:51.133Z,8.88
2023-05-01T15:15:17.796Z,11.00
2023-05-01T15:17:44.648Z,9.88
2023-05-01T15:20:11.659Z,10.75
2023-05-01T15:22:40.330Z,11.32
2023-05-01T15:27:35.342Z,12.93
2023-05-01T15:30:02.099Z,13.38
2023-05-01T15:32:28.806Z,13.23
2023-05-01T15:34:55.583Z,13.82
2023-05-01T15:37:23.233Z,13.93
2023-05-01T15:39:52.941Z,12.75
2023-05-01T15:42:19.964Z,15.70
2023-05-01T15:44:47.493Z,14.93
2023-05-01T15:47:14.446Z,15.20
2023-05-01T15:49:41.131Z,16.40
2023-05-01T15:52:07.778Z,16.45
2023-05-01T15:54:34.385Z,16.70
2023-05-01T15:57:01.090Z,15.75
2023-05-01T15:59:27.777Z,16.35
2023-05-01T16:01:54.832Z,17.63
2023-05-01T16:04:21.916Z,17.13
2023-05-01T16:06:48.767Z,18.20
2023-05-01T16:09:15.398Z,15.05
2023-05-01T16:11:42.014Z,15.25
2023-05-01T16:14:09.262Z,16.20
2023-05-01T16:16:36.001Z,16.67
2023-05-01T16:19:02.672Z,16.33
2023-05-01T16:21:29.294Z,15.48
2023-05-01T16:23:55.939Z,14.93
2023-05-01T16:26:26.138Z,15.40
2023-05-01T16:29:01.231Z,15.52
2023-05-01T16:31:28.189Z,16.45
2023-05-01T16:33:54.926Z,16.98
2023-05-01T16:36:21.688Z,17.98
2023-05-01T16:38:48.361Z,17.67
2023-05-01T16:41:18.469Z,15.85
2023-05-01T16:43:45.372Z,17.23
2023-05-01T16:46:15.674Z,16.65
2023-05-01T16:48:42.478Z,12.15
2023-05-01T16:51:10.119Z,12.32
2023-05-01T16:53:36.762Z,11.77
2023-05-01T16:56:03.964Z,13.13
2023-05-01T16:58:30.604Z,15.25
2023-05-01T17:00:57.250Z,14.07
2023-05-01T17:03:23.822Z,15.10
2023-05-01T17:05:50.569Z,15.13
2023-05-01T17:08:17.313Z,16.27
2023-05-01T17:10:44.314Z,15.60
2023-05-01T17:13:12.972Z,16.05
2023-05-01T17:15:39.645Z,15.40
2023-05-01T17:18:06.308Z,16.90
2023-05-01T17:20:33.019Z,15.20
2023-05-01T17:22:59.667Z,15.35
2023-05-01T17:25:26.350Z,16.45
2023-05-01T17:27:52.957Z,14.82
2023-05-01T17:30:19.790Z,13.38
2023-05-01T17:32:46.594Z,14.82
2023-05-01T17:35:13.332Z,13.18
2023-05-01T17:37:39.984Z,12.48
2023-05-01T17:40:08.229Z,12.27
2023-05-01T17:42:35.769Z,11.07
2023-05-01T17:45:02.365Z,11.40
2023-05-01T17:47:29.140Z,9.48
2023-05-01T17:49:56.062Z,7.88
2023-05-01T17:52:22.960Z,8.45
2023-05-01T17:54:49.628Z,7.63
2023-05-01T17:57:16.283Z,8.40
2023-05-01T17:59:42.937Z,9.38
2023-05-01T18:02:09.684Z,10.27
2023-05-01T18:04:37.952Z,10.80
2023-05-01T18:07:05.853Z,13.00
2023-05-01T18:09:32.487Z,12.48
2023-05-01T18:11:59.156Z,15.90
2023-05-01T18:14:25.741Z,15.48
2023-05-01T18:16:52.503Z,16.10
2023-05-01T18:19:19.286Z,18.25
2023-05-01T18:21:45.928Z,19.20
2023-05-01T18:24:12.568Z,20.60
2023-05-01T18:26:39.241Z,21.20
2023-05-01T18:29:05.854Z,20.85
2023-05-01T18:31:32.607Z,22.90
2023-05-01T18:33:59.398Z,22.15
2023-05-01T18:36:26.001Z,22.42
2023-05-01T18:38:52.657Z,24.77
2023-05-01T18:41:20.519Z,23.90
2023-05-01T18:43:47.169Z,21.27
2023-05-01T18:46:13.869Z,23.05
2023-05-01T18:48:40.609Z,25.40
2023-05-01T18:51:09.317Z,23.25
2023-05-01T18:53:36.298Z,25.15
2023-05-01T18:56:03.055Z,24.15
2023-05-01T18:58:29.776Z,22.63
2023-05-01T19:00:56.510Z,23.50
2023-05-01T19:03:33.596Z,23.63
2023-05-01T19:06:00.289Z,22.08
2023-05-01T19:08:26.990Z,21.70
2023-05-01T19:10:53.620Z,21.67
2023-05-01T19:13:20.213Z,22.38
2023-05-01T19:15:46.880Z,21.33
2023-05-01T19:18:13.577Z,21.65
2023-05-01T19:20:40.370Z,21.63
2023-05-01T19:23:07.000Z,20.88
2023-05-01T19:25:33.577Z,21.08
2023-05-01T19:28:00.527Z,20.48
2023-05-01T19:30:27.253Z,21.15
2023-05-01T19:32:53.878Z,20.13
2023-05-01T19:35:20.529Z,20.40
2023-05-01T19:37:49.371Z,19.05
2023-05-01T19:40:17.245Z,21.70
2023-05-01T19:42:43.886Z,21.00
2023-05-01T19:45:10.600Z,18.98
2023-05-01T19:47:37.334Z,19.08
2023-05-01T19:50:04.138Z,18.75
2023-05-01T19:52:30.933Z,18.63
2023-05-01T19:54:57.600Z,18.35
2023-05-01T19:57:24.271Z,20.25
2023-05-01T19:59:50.925Z,19.67
2023-05-01T20:02:17.648Z,19.98
2023-05-01T20:04:44.338Z,17.60
2023-05-01T20:07:11.070Z,19.60
2023-05-01T20:09:37.667Z,21.60
2023-05-01T20:12:04.493Z,20.65
2023-05-01T20:14:33.453Z,21.65
2023-05-01T20:17:00.930Z,22.02
2023-05-01T20:19:27.699Z,21.15
2023-05-01T20:21:54.324Z,22.30
2023-05-01T20:24:21.074Z,21.65
2023-05-01T20:26:47.717Z,21.88
2023-05-01T20:29:14.389Z,21.45
2023-05-01T20:31:41.048Z,21.58
2023-05-01T20:34:07.711Z,23.25
2023-05-01T20:36:34.376Z,20.27
2023-05-01T20:39:00.995Z,21.42
2023-05-01T20:41:27.692Z,20.90
2023-05-01T20:43:54.643Z,21.60
2023-05-01T20:46:21.603Z,20.08
2023-05-01T20:48:48.329Z,20.65
2023-05-01T20:51:15.969Z,22.05
2023-05-01T20:53:42.650Z,21.08
2023-05-01T20:56:09.262Z,19.65
2023-05-01T20:58:36.112Z,19.38
2023-05-01T21:01:02.849Z,19.58
2023-05-01T21:03:29.641Z,20.20
2023-05-01T21:06:00.169Z,20.27
2023-05-01T21:08:32.810Z,19.30
2023-05-01T21:11:00.781Z,18.92
2023-05-01T21:13:28.596Z,20.30
2023-05-01T21:15:55.397Z,20.73
2023-05-01T21:18:22.209Z,19.85
2023-05-01T21:20:48.929Z,22.38
2023-05-01T21:23:16.298Z,21.27
2023-05-01T21:25:42.988Z,20.23
2023-05-01T21:28:13.416Z,21.77
2023-05-01T21:30:40.197Z,21.88
2023-05-01T21:33:08.583Z,20.83
2023-05-01T21:35:35.293Z,20.30
2023-05-01T21:38:02.103Z,18.45
2023-05-01T21:40:28.813Z,21.05
2023-05-01T21:42:55.636Z,21.52
2023-05-01T21:45:22.318Z,21.73
2023-05-01T21:47:50.093Z,20.88
2023-05-01T21:50:18.005Z,21.98
2023-05-01T21:52:45.610Z,21.38
2023-05-01T21:55:25.703Z,22.05
2023-05-01T21:57:52.482Z,20.23
2023-05-01T22:00:20.162Z,20.73
2023-05-01T22:02:48.150Z,21.83
2023-05-01T22:05:16.189Z,20.75
2023-05-01T22:07:46.087Z,21.85
2023-05-01T22:10:13.961Z,20.55
2023-05-01T22:12:40.977Z,19.98
2023-05-01T22:15:08.783Z,21.42
2023-05-01T22:17:36.173Z,21.38
2023-05-01T22:20:02.979Z,21.98
2023-05-01T22:22:29.771Z,22.02
2023-05-01T22:24:56.354Z,21.88
2023-05-01T22:27:23.196Z,21.58
2023-05-01T22:29:49.859Z,23.05
2023-05-01T22:32:16.602Z,20.55
2023-05-01T22:34:43.276Z,21.73
2023-05-01T22:37:10.184Z,22.33
2023-05-01T22:39:36.842Z,24.75
2023-05-01T22:42:03.824Z,23.25
2023-05-01T22:44:30.622Z,22.38
2023-05-01T22:46:57.362Z,21.38
2023-05-01T22:49:23.963Z,23.48
2023-05-01T22:51:50.684Z,21.98
2023-05-01T22:54:17.323Z,21.38
2023-05-01T22:56:43.947Z,22.17
2023-05-01T22:59:10.543Z,19.88
2023-05-01T23:01:37.274Z,22.88
2023-05-01T23:04:04.257Z,22.30
2023-05-01T23:06:31.020Z,23.65
2023-05-01T23:08:57.728Z,21.13
2023-05-01T23:11:24.435Z,23.23
2023-05-01T23:13:51.122Z,22.15
2023-05-01T23:16:17.806Z,22.33
2023-05-01T23:18:44.490Z,22.50
2023-05-01T23:21:12.322Z,21.10
2023-05-01T23:23:40.956Z,21.40
2023-05-01T23:26:07.637Z,20.23
2023-05-01T23:28:34.358Z,19.13
2023-05-01T23:31:02.249Z,17.30
2023-05-01T23:33:35.862Z,21.23
2023-05-01T23:36:02.646Z,19.25
2023-05-01T23:38:29.229Z,18.40
2023-05-01T23:40:55.922Z,18.45
2023-05-01T23:43:22.579Z,18.20
2023-05-01T23:45:49.296Z,18.30
2023-05-01T23:48:15.909Z,16.52
2023-05-01T23:50:42.567Z,18.13
2023-05-01T23:53:09.203Z,17.98
2023-05-01T23:55:35.885Z,19.65
2023-05-01T23:58:02.590Z,17.33
